createdAt,value
2018-03-12T00:00:04.985Z,1
2018-03-12T00:05:02.869Z,1
2018-03-12T00:10:03.402Z,1
2018-03-12T00:15:02.882Z,1
2018-03-12T00:20:03.438Z,1
2018-03-12T00:25:02.909Z,1
2018-03-12T00:30:03.389Z,1
2018-03-12T00:35:02.821Z,1
2018-03-12T00:40:03.393Z,1
2018-03-12T00:45:02.921Z,1
2018-03-12T00:50:02.719Z,1
2018-03-12T00:55:03.174Z,1
2018-03-12T01:00:02.636Z,1
2018-03-12T01:05:02.890Z,1
2018-03-12T01:10:03.443Z,1
2018-03-12T01:15:03.164Z,1
2018-03-12T01:20:02.733Z,1
2018-03-12T01:25:03.287Z,1
2018-03-12T01:30:02.793Z,1
2018-03-12T01:35:03.401Z,1
2018-03-12T01:40:02.948Z,1
2018-03-12T01:45:03.417Z,1
2018-03-12T01:50:02.837Z,1
2018-03-12T01:55:03.356Z,1
2018-03-12T02:00:02.775Z,1
2018-03-12T02:05:03.271Z,1
2018-03-12T02:10:02.853Z,1
2018-03-12T02:15:03.346Z,1
2018-03-12T02:20:02.851Z,1
2018-03-12T02:25:03.344Z,1
2018-03-12T02:30:02.828Z,1
2018-03-12T02:35:03.389Z,1
2018-03-12T02:40:02.909Z,1
2018-03-12T02:45:03.433Z,1
2018-03-12T02:50:02.984Z,1
2018-03-12T02:55:02.475Z,1
2018-03-12T03:00:02.993Z,1
2018-03-12T03:05:02.557Z,1
2018-03-12T03:10:03.129Z,1
2018-03-12T03:15:02.592Z,1
2018-03-12T03:20:03.161Z,1
2018-03-12T03:25:02.653Z,1
2018-03-12T03:30:03.124Z,1
2018-03-12T03:35:02.636Z,1
2018-03-12T03:40:03.131Z,1
2018-03-12T03:45:02.631Z,1
2018-03-12T03:50:03.172Z,1
2018-03-12T03:55:02.638Z,1
2018-03-12T04:00:03.454Z,1
2018-03-12T04:05:02.944Z,1
2018-03-12T04:10:02.488Z,1
2018-03-12T04:15:03.296Z,1
2018-03-12T04:20:02.775Z,1
2018-03-12T04:25:03.231Z,1
2018-03-12T04:30:02.677Z,1
2018-03-12T04:35:03.201Z,1
2018-03-12T04:40:02.707Z,1
2018-03-12T04:45:03.178Z,1
2018-03-12T04:50:02.621Z,1
2018-03-12T04:55:03.181Z,1
2018-03-12T05:00:02.669Z,1
2018-03-12T05:05:03.188Z,1
2018-03-12T05:10:02.621Z,1
2018-03-12T05:15:03.051Z,1
2018-03-12T05:20:02.552Z,1
2018-03-12T05:25:03.061Z,2
2018-03-12T05:30:02.805Z,2
2018-03-12T05:35:03.265Z,4
2018-03-12T05:40:02.716Z,7
2018-03-12T05:45:03.221Z,13
2018-03-12T05:50:02.629Z,21
2018-03-12T05:55:03.114Z,26
2018-03-12T06:00:02.572Z,35
2018-03-12T06:05:03.047Z,55
2018-03-12T06:10:02.562Z,61
2018-03-12T06:15:03.050Z,78
2018-03-12T06:20:02.539Z,98
2018-03-12T06:25:02.975Z,160
2018-03-12T06:30:03.436Z,256
2018-03-12T06:35:02.960Z,187
2018-03-12T06:40:02.459Z,253
2018-03-12T06:45:02.921Z,347
2018-03-12T06:50:03.339Z,461
2018-03-12T06:55:02.796Z,532
2018-03-12T07:00:03.254Z,537
2018-03-12T07:05:02.688Z,542
2018-03-12T07:10:03.221Z,547
2018-03-12T07:15:02.674Z,601
2018-03-12T07:20:03.173Z,675
2018-03-12T07:25:02.695Z,752
2018-03-12T07:30:03.566Z,935
2018-03-12T07:35:03.017Z,1000
2018-03-12T07:40:02.532Z,1000
2018-03-12T07:45:03.087Z,1000
2018-03-12T07:50:02.602Z,1000
2018-03-12T07:55:03.052Z,1000
2018-03-12T08:00:03.187Z,1000
2018-03-12T08:05:02.711Z,1000
2018-03-12T08:10:03.275Z,1000
2018-03-12T08:15:02.766Z,2000
2018-03-12T08:20:03.366Z,2000
2018-03-12T08:25:02.868Z,3000
2018-03-12T08:30:03.374Z,6000
2018-03-12T08:35:02.937Z,5000
2018-03-12T08:40:02.473Z,4000
2018-03-12T08:45:02.957Z,4000
2018-03-12T08:50:02.477Z,4000
2018-03-12T08:55:02.962Z,4000
2018-03-12T09:00:03.441Z,5000
2018-03-12T09:05:02.891Z,6000
2018-03-12T09:10:03.398Z,5000
2018-03-12T09:15:02.917Z,4000
2018-03-12T09:20:03.439Z,5000
2018-03-12T09:25:02.908Z,5000
2018-03-12T09:30:03.380Z,8000
2018-03-12T09:35:02.844Z,14000
2018-03-12T09:40:03.453Z,14000
2018-03-12T09:45:02.970Z,35000
2018-03-12T09:50:02.491Z,35000
2018-03-12T09:55:03.017Z,32000
2018-03-12T10:00:02.544Z,28000
2018-03-12T10:05:03.095Z,34000
2018-03-12T10:10:02.642Z,30000
2018-03-12T10:15:03.099Z,21000
2018-03-12T10:20:02.587Z,42000
2018-03-12T10:25:03.097Z,21000
2018-03-12T10:30:02.589Z,15000
2018-03-12T10:35:03.115Z,20000
2018-03-12T10:40:02.652Z,26000
2018-03-12T10:45:03.191Z,21000
2018-03-12T10:50:02.681Z,21000
2018-03-12T10:55:03.172Z,23000
2018-03-12T11:00:02.590Z,13000
2018-03-12T11:05:03.076Z,34000
2018-03-12T11:10:02.592Z,14000
2018-03-12T11:15:03.039Z,11000
2018-03-12T11:20:02.591Z,35000
2018-03-12T11:25:03.096Z,40000
2018-03-12T11:30:02.576Z,12000
2018-03-12T11:35:03.239Z,10000
2018-03-12T11:40:02.998Z,10000
2018-03-12T11:45:02.499Z,8000
2018-03-12T11:50:02.963Z,6000
2018-03-12T11:55:03.420Z,8000
2018-03-12T12:00:02.886Z,6000
2018-03-12T12:05:03.383Z,8000
2018-03-12T12:10:02.921Z,10000
2018-03-12T12:15:03.444Z,18000
2018-03-12T12:20:03.115Z,6000
2018-03-12T12:25:02.560Z,35000
2018-03-12T12:30:03.231Z,32000
2018-03-12T12:35:02.738Z,9000
2018-03-12T12:40:03.298Z,7000
2018-03-12T12:45:02.752Z,5000
2018-03-12T12:50:03.252Z,3000
2018-03-12T12:55:02.756Z,2000
2018-03-12T13:00:03.216Z,4000
2018-03-12T13:05:02.602Z,4000
2018-03-12T13:10:03.410Z,2000
2018-03-12T13:15:02.581Z,1000
2018-03-12T13:20:03.160Z,1000
2018-03-12T13:25:02.625Z,2000
2018-03-12T13:30:03.120Z,4000
2018-03-12T13:35:02.987Z,4000
2018-03-12T13:40:02.572Z,3000
2018-03-12T13:45:03.009Z,2000
2018-03-12T13:50:02.504Z,3000
2018-03-12T13:55:03.119Z,9000
2018-03-12T14:00:02.663Z,7000
2018-03-12T14:05:03.299Z,4000
2018-03-12T14:10:02.905Z,4000
2018-03-12T14:15:03.457Z,4000
2018-03-12T14:20:03.106Z,5000
2018-03-12T14:25:02.701Z,5000
2018-03-12T14:30:03.157Z,4000
2018-03-12T14:35:02.632Z,4000
2018-03-12T14:40:03.233Z,6000
2018-03-12T14:45:02.732Z,8000
2018-03-12T14:50:03.257Z,5000
2018-03-12T14:55:02.731Z,4000
2018-03-12T15:05:02.832Z,4000
2018-03-12T15:25:14.330Z,10000
2018-03-12T15:35:21.101Z,11000
2018-03-12T15:50:08.097Z,2000
2018-03-12T15:55:02.480Z,2000
2018-03-12T16:00:02.917Z,1000
2018-03-12T16:05:03.418Z,3000
2018-03-12T16:10:02.984Z,10000
2018-03-12T16:15:02.440Z,2000
2018-03-12T16:20:03.003Z,1000
2018-03-12T16:25:03.459Z,1000
2018-03-12T16:30:03.011Z,1000
2018-03-12T16:35:02.569Z,664
2018-03-12T16:40:03.117Z,441
2018-03-12T16:45:02.680Z,310
2018-03-12T16:50:03.176Z,323
2018-03-12T16:55:02.672Z,514
2018-03-12T17:00:03.174Z,622
2018-03-12T17:05:02.678Z,747
2018-03-12T17:10:03.324Z,852
2018-03-12T17:15:03.110Z,714
2018-03-12T17:20:02.635Z,647
2018-03-12T17:25:03.104Z,473
2018-03-12T17:30:02.585Z,337
2018-03-12T17:35:03.137Z,210
2018-03-12T17:40:02.650Z,59
2018-03-12T17:45:03.094Z,37
2018-03-12T17:50:02.593Z,21
2018-03-12T17:55:03.137Z,13
2018-03-12T18:00:02.952Z,7
2018-03-12T18:05:02.495Z,3
2018-03-12T18:10:03.100Z,2
2018-03-12T18:15:02.635Z,2
2018-03-12T18:20:03.094Z,2
2018-03-12T18:25:02.613Z,1
2018-03-12T18:30:03.107Z,1
2018-03-12T18:35:02.588Z,1
2018-03-12T18:40:03.164Z,1
2018-03-12T18:45:02.636Z,1
2018-03-12T18:50:03.154Z,1
2018-03-12T18:55:02.634Z,1
2018-03-12T19:00:03.171Z,1
2018-03-12T19:05:02.733Z,1
2018-03-12T19:10:03.324Z,1
2018-03-12T19:15:02.826Z,1
2018-03-12T19:20:03.489Z,1
2018-03-12T19:25:03.017Z,1
2018-03-12T19:30:02.508Z,1
2018-03-12T19:35:03.082Z,1
2018-03-12T19:40:02.726Z,1
2018-03-12T19:45:03.339Z,1
2018-03-12T19:50:02.908Z,1
2018-03-12T19:55:03.051Z,1
2018-03-12T20:00:02.595Z,1
2018-03-12T20:05:04.383Z,1
2018-03-12T20:10:03.362Z,1
2018-03-12T20:15:02.963Z,1
2018-03-12T20:20:02.674Z,1
2018-03-12T20:25:03.448Z,1
2018-03-12T20:30:02.546Z,1
2018-03-12T20:35:03.175Z,1
2018-03-12T20:40:03.093Z,1
2018-03-12T20:45:02.709Z,1
2018-03-12T20:50:03.474Z,1
2018-03-12T20:55:03.186Z,1
2018-03-12T21:00:03.124Z,1
2018-03-12T21:05:02.680Z,1
2018-03-12T21:10:03.292Z,1
2018-03-12T21:15:02.772Z,1
2018-03-12T21:20:03.358Z,1
2018-03-12T21:25:02.869Z,1
2018-03-12T21:30:03.362Z,1
2018-03-12T21:35:02.848Z,1
2018-03-12T21:40:03.362Z,1
2018-03-12T21:45:02.880Z,1
2018-03-12T21:50:03.357Z,1
2018-03-12T21:55:02.852Z,1
2018-03-12T22:00:03.282Z,1
2018-03-12T22:05:02.779Z,1
2018-03-12T22:10:03.395Z,1
2018-03-12T22:15:02.893Z,1
2018-03-12T22:20:03.417Z,1
2018-03-12T22:25:02.869Z,1
2018-03-12T22:30:03.375Z,1
2018-03-12T22:35:02.802Z,1
2018-03-12T22:40:03.398Z,1
2018-03-12T22:45:02.842Z,1
2018-03-12T22:50:03.385Z,1
2018-03-12T22:55:02.849Z,1
2018-03-12T23:00:03.427Z,1
2018-03-12T23:05:03.093Z,1
2018-03-12T23:10:02.817Z,1
2018-03-12T23:15:03.349Z,1
2018-03-12T23:20:02.964Z,1
2018-03-12T23:25:03.430Z,1
2018-03-12T23:30:02.979Z,1
2018-03-12T23:35:02.563Z,1
2018-03-12T23:40:03.091Z,1
2018-03-12T23:45:02.524Z,1
2018-03-12T23:50:03.013Z,1
2018-03-12T23:55:02.437Z,1
